Time;durP1;ratioP1;P1;durP2;ratioP2;P2;SDS_P1;SDS_P2;PMS_P1;PMS_P2;Temp;Humidity;BMP_temperature;BMP_pressure;BME280_temperature;BME280_humidity;BME280_pressure;Samples;Min_cycle;Max_cycle;Signal;HPM_P1;HPM_P2
2022/01/25 08:45:41;;;;;;;58.72;28.65;;;;;;;;;;6267179;22;1228438;-82
2022/01/25 08:48:07;;;;;;;56.58;28.25;;;;;;;;;;6339542;22;20089;-82
2022/01/25 09:36:24;;;;;;;54.05;30.25;;;;;;;;;;6370673;22;20006;-81
2022/01/25 09:38:53;;;;;;;57.80;30.02;;;;;;;;;;6372474;22;20034;-81
2022/01/25 09:41:19;;;;;;;47.17;26.27;;;;;;;;;;6372490;22;20006;-81
2022/01/25 09:43:45;;;;;;;51.10;27.85;;;;;;;;;;6343358;22;20072;-81
2022/01/25 09:46:10;;;;;;;49.03;27.65;;;;;;;;;;6341195;22;19994;-82
2022/01/25 09:48:36;;;;;;;52.30;28.13;;;;;;;;;;6340442;22;20117;-82
2022/01/25 09:51:02;;;;;;;51.75;29.27;;;;;;;;;;6338961;22;20086;-80
2022/01/25 09:53:29;;;;;;;49.63;26.65;;;;;;;;;;6340370;22;20321;-82
2022/01/25 09:55:55;;;;;;;47.45;28.02;;;;;;;;;;6340601;22;20379;-81
2022/01/25 09:58:21;;;;;;;54.60;29.77;;;;;;;;;;6340578;22;20002;-82
2022/01/25 10:00:48;;;;;;;48.15;27.13;;;;;;;;;;6339035;22;20006;-83
2022/01/25 10:03:27;;;;;;;46.75;28.48;;;;;;;;;;6340277;22;20081;-82
2022/01/25 10:06:00;;;;;;;53.35;28.85;;;;;;;;;;6340758;22;20007;-83
2022/01/25 10:08:29;;;;;;;50.38;29.20;;;;;;;;;;6340568;22;20081;-82
2022/01/25 10:10:56;;;;;;;;;;;;;;;;;;6340743;22;20417;-82
2022/01/25 10:13:42;;;;;;;49.92;28.33;;;;;;;;;;6340455;22;20258;-82
2022/01/25 10:16:10;;;;;;;50.40;28.95;;;;;;;;;;6340469;22;20003;-84
2022/01/25 10:18:56;;;;;;;52.38;29.85;;;;;;;;;;6340371;22;20003;-82
2022/01/25 10:21:24;;;;;;;47.25;29.23;;;;;;;;;;6340320;22;20061;-82
2022/01/25 10:24:08;;;;;;;45.63;29.50;;;;;;;;;;6340358;22;20021;-82
2022/01/25 10:26:43;;;;;;;49.20;28.85;;;;;;;;;;6338869;22;20003;-81
2022/01/25 10:29:12;;;;;;;50.47;30.70;;;;;;;;;;6340083;22;20337;-82
2022/01/25 10:31:40;;;;;;;50.30;31.77;;;;;;;;;;6340216;22;20002;-82
2022/01/25 10:34:10;;;;;;;43.42;29.83;;;;;;;;;;6340272;22;20026;-84
2022/01/25 10:36:46;;;;;;;45.70;30.45;;;;;;;;;;6338193;22;20056;-82
2022/01/25 10:39:14;;;;;;;45.40;30.25;;;;;;;;;;6340219;22;20007;-82
2022/01/25 10:41:40;;;;;;;43.42;31.55;;;;;;;;;;6340053;22;20384;-83
2022/01/25 10:44:07;;;;;;;41.42;29.40;;;;;;;;;;6340690;22;20060;-82
2022/01/25 10:46:34;;;;;;;41.35;30.25;;;;;;;;;;6340345;22;19995;-82
2022/01/25 10:49:11;;;;;;;39.00;29.60;;;;;;;;;;6338359;22;20007;-82
2022/01/25 10:51:42;;;;;;;40.63;30.05;;;;;;;;;;6340112;22;20034;-82
2022/01/25 10:54:11;;;;;;;42.75;31.58;;;;;;;;;;6338466;22;20003;-82
2022/01/25 10:56:40;;;;;;;40.42;29.27;;;;;;;;;;6340454;22;20375;-85
2022/01/25 10:59:07;;;;;;;37.88;28.05;;;;;;;;;;6340238;22;20001;-88
2022/01/25 11:01:36;;;;;;;36.63;26.92;;;;;;;;;;6340006;22;20430;-86
2022/01/25 11:04:07;;;;;;;37.08;27.70;;;;;;;;;;6340812;22;19999;-85
2022/01/25 11:06:33;;;;;;;41.72;27.85;;;;;;;;;;6338471;22;20009;-85
2022/01/25 11:09:05;;;;;;;37.42;28.23;;;;;;;;;;6340153;22;20369;-85
2022/01/25 11:11:36;;;;;;;36.30;27.75;;;;;;;;;;6340403;22;20471;-84
2022/01/25 11:14:50;;;;;;;33.35;25.90;;;;;;;;;;6338542;22;20393;-84
2022/01/25 11:16:49;;;;;;;39.08;27.48;;;;;;;;;;6339747;22;20003;-85
2022/01/25 11:19:15;;;;;;;37.90;27.30;;;;;;;;;;6340380;22;20006;-82
2022/01/25 11:21:43;;;;;;;38.00;27.38;;;;;;;;;;6340150;22;20003;-85
2022/01/25 11:24:11;;;;;;;37.58;26.85;;;;;;;;;;6339881;22;20031;-85
2022/01/25 11:26:37;;;;;;;35.53;25.40;;;;;;;;;;6338522;22;20329;-85
2022/01/25 11:29:03;;;;;;;38.50;23.45;;;;;;;;;;6339784;22;20037;-85
2022/01/25 11:31:29;;;;;;;32.35;23.73;;;;;;;;;;6339821;22;20033;-84
2022/01/25 11:33:55;;;;;;;34.83;25.00;;;;;;;;;;6339555;22;20371;-85
2022/01/25 11:36:22;;;;;;;30.38;23.40;;;;;;;;;;6339532;22;20034;-85
2022/01/25 11:38:52;;;;;;;29.77;20.23;;;;;;;;;;6338256;22;20003;-85
2022/01/25 11:41:20;;;;;;;30.15;20.42;;;;;;;;;;6338101;22;20367;-85
2022/01/25 11:44:10;;;;;;;32.30;21.93;;;;;;;;;;6339800;22;20002;-85
2022/01/25 11:46:38;;;;;;;30.48;21.27;;;;;;;;;;6339735;22;20393;-84
2022/01/25 11:49:09;;;;;;;32.13;21.98;;;;;;;;;;6339688;22;20073;-84
2022/01/25 11:51:35;;;;;;;31.23;21.30;;;;;;;;;;6339681;22;20070;-84
2022/01/25 11:54:04;;;;;;;27.92;20.10;;;;;;;;;;6339604;22;20030;-84
2022/01/25 11:56:30;;;;;;;29.02;19.67;;;;;;;;;;6339738;22;20002;-83
2022/01/25 11:58:58;;;;;;;29.45;20.52;;;;;;;;;;6339942;22;20373;-83
2022/01/25 12:01:26;;;;;;;35.30;23.90;;;;;;;;;;6339566;22;20036;-83
2022/01/25 12:03:56;;;;;;;34.90;23.98;;;;;;;;;;6338022;22;20337;-84
2022/01/25 12:06:28;;;;;;;36.25;25.20;;;;;;;;;;6339636;22;20007;-84
2022/01/25 12:09:09;;;;;;;36.70;24.42;;;;;;;;;;6339543;22;19999;-84
2022/01/25 12:11:50;;;;;;;33.40;23.42;;;;;;;;;;6339794;22;20022;-84
2022/01/25 12:14:23;;;;;;;33.53;23.13;;;;;;;;;;6338024;22;20003;-89
2022/01/25 12:16:55;;;;;;;33.70;23.73;;;;;;;;;;6341310;22;20061;-85
2022/01/25 12:19:51;;;;;;;34.42;23.25;;;;;;;;;;6339463;22;20425;-85
2022/01/25 12:22:42;;;;;;;35.45;23.75;;;;;;;;;;6339701;22;20049;-88
2022/01/25 12:25:38;;;;;;;35.15;23.80;;;;;;;;;;6341268;22;19995;-86
2022/01/25 12:28:09;;;;;;;36.78;24.23;;;;;;;;;;6338566;22;20317;-86
2022/01/25 12:30:38;;;;;;;34.35;24.05;;;;;;;;;;6339699;22;20437;-84
2022/01/25 12:33:19;;;;;;;34.53;22.50;;;;;;;;;;6327293;22;20049;-86
2022/01/25 12:36:00;;;;;;;45.40;28.73;;;;;;;;;;6308824;22;20067;-87
2022/01/25 12:38:37;;;;;;;54.63;34.28;;;;;;;;;;6307829;22;20004;-86
2022/01/25 12:41:08;;;;;;;37.42;26.05;;;;;;;;;;6308606;22;20078;-85
2022/01/25 12:43:39;;;;;;;37.05;23.40;;;;;;;;;;6308417;22;20041;-83
2022/01/25 12:46:18;;;;;;;38.95;24.63;;;;;;;;;;6309417;22;20004;-85
2022/01/25 17:15:36;;;;;;;57.63;27.42;;;;;;;;;;6357867;22;20023;-83
2022/01/25 17:18:02;;;;;;;55.05;27.67;;;;;;;;;;6370001;22;20006;-84
2022/01/25 17:20:28;;;;;;;54.42;27.05;;;;;;;;;;6342749;22;20010;-84
2022/01/25 17:22:54;;;;;;;53.88;27.58;;;;;;;;;;6370714;22;20005;-83
2022/01/25 17:25:20;;;;;;;52.97;27.25;;;;;;;;;;6370409;22;19995;-83
2022/01/25 17:27:46;;;;;;;55.15;27.90;;;;;;;;;;6370946;22;20009;-84
2022/01/25 17:30:11;;;;;;;53.80;26.85;;;;;;;;;;6370295;22;20439;-84
2022/01/25 17:32:39;;;;;;;53.53;27.58;;;;;;;;;;6342718;22;19998;-84
2022/01/25 17:35:06;;;;;;;55.92;27.60;;;;;;;;;;6370580;22;20002;-83
2022/01/25 17:37:32;;;;;;;56.15;28.45;;;;;;;;;;6370551;22;20025;-84
2022/01/25 17:39:59;;;;;;;59.50;30.42;;;;;;;;;;6370450;22;19998;-84
2022/01/25 17:42:25;;;;;;;66.32;30.30;;;;;;;;;;6370214;22;19999;-83
2022/01/25 17:44:51;;;;;;;62.65;31.88;;;;;;;;;;6371052;22;19998;-84
2022/01/25 17:47:17;;;;;;;62.65;30.73;;;;;;;;;;6372418;22;19998;-83
2022/01/25 17:49:43;;;;;;;61.30;31.27;;;;;;;;;;6343935;22;20320;-83
2022/01/25 17:52:09;;;;;;;63.22;32.58;;;;;;;;;;6372135;22;19999;-84
2022/01/25 17:54:34;;;;;;;60.50;32.20;;;;;;;;;;6344094;22;20002;-87
2022/01/25 17:57:00;;;;;;;64.25;30.67;;;;;;;;;;6372019;22;20065;-84
2022/01/25 17:59:25;;;;;;;64.57;31.83;;;;;;;;;;6372197;22;20317;-86
2022/01/25 18:01:54;;;;;;;64.68;30.83;;;;;;;;;;6343917;22;20033;-80
2022/01/25 18:04:20;;;;;;;66.87;31.63;;;;;;;;;;6372428;22;20003;-85
2022/01/25 18:06:46;;;;;;;64.15;31.77;;;;;;;;;;6372299;22;20433;-82
2022/01/25 18:09:11;;;;;;;67.63;32.20;;;;;;;;;;6371647;22;20086;-83
2022/01/25 18:11:42;;;;;;;58.35;30.88;;;;;;;;;;6343911;22;20014;-82
2022/01/25 18:14:08;;;;;;;61.58;30.77;;;;;;;;;;6372822;22;20082;-83
2022/01/25 18:16:34;;;;;;;67.30;31.67;;;;;;;;;;6371792;22;20010;-81
2022/01/25 18:19:00;;;;;;;68.85;33.80;;;;;;;;;;6371814;22;20321;-82
2022/01/25 18:21:28;;;;;;;61.45;32.22;;;;;;;;;;6371748;22;20002;-82
2022/01/25 18:24:05;;;;;;;67.40;32.38;;;;;;;;;;6371478;22;20023;-83
2022/01/25 18:26:43;;;;;;;72.85;37.00;;;;;;;;;;6371928;22;20033;-83
2022/01/25 18:29:09;;;;;;;69.90;35.08;;;;;;;;;;6371609;22;20033;-86
2022/01/25 18:31:39;;;;;;;68.95;34.47;;;;;;;;;;6371795;22;20002;-83
2022/01/25 18:34:07;;;;;;;75.97;37.03;;;;;;;;;;6371665;22;20059;-83
2022/01/25 18:36:33;;;;;;;70.68;36.40;;;;;;;;;;6371608;22;20435;-82
2022/01/25 18:39:03;;;;;;;80.38;40.03;;;;;;;;;;6371868;22;20009;-82
2022/01/25 18:41:29;;;;;;;97.07;49.00;;;;;;;;;;6343904;22;20002;-83
2022/01/25 18:43:55;;;;;;;88.63;43.47;;;;;;;;;;6343717;22;20075;-83
2022/01/25 18:46:20;;;;;;;87.65;41.75;;;;;;;;;;6370790;22;20425;-85
2022/01/25 18:48:46;;;;;;;84.60;37.97;;;;;;;;;;6343558;22;20044;-81
2022/01/25 18:51:12;;;;;;;78.70;38.95;;;;;;;;;;6371411;22;20437;-83
2022/01/25 18:53:38;;;;;;;71.97;35.92;;;;;;;;;;6371462;22;20025;-87
2022/01/25 18:56:06;;;;;;;70.07;37.95;;;;;;;;;;6371231;22;20002;-86
2022/01/25 18:58:32;;;;;;;79.57;38.97;;;;;;;;;;6343668;22;20029;-83
2022/01/25 19:00:58;;;;;;;81.28;39.95;;;;;;;;;;6371506;22;20421;-81
2022/01/25 19:03:23;;;;;;;81.40;39.50;;;;;;;;;;6342911;22;20003;-84
2022/01/25 19:05:51;;;;;;;86.15;39.78;;;;;;;;;;6371396;22;20009;-84
2022/01/25 19:08:18;;;;;;;80.20;39.72;;;;;;;;;;6371496;22;20007;-83
2022/01/25 19:10:43;;;;;;;80.65;40.00;;;;;;;;;;6343497;22;20003;-83
2022/01/25 19:13:09;;;;;;;75.95;38.72;;;;;;;;;;6371219;22;20009;-83
2022/01/25 19:15:34;;;;;;;68.90;34.80;;;;;;;;;;6371488;22;19998;-83
2022/01/25 19:18:00;;;;;;;77.28;36.60;;;;;;;;;;6370994;22;20013;-84
2022/01/25 19:20:25;;;;;;;77.00;36.75;;;;;;;;;;6371403;22;20009;-84
2022/01/25 19:22:51;;;;;;;72.18;35.72;;;;;;;;;;6371206;22;20010;-83
2022/01/25 19:25:16;;;;;;;77.63;36.03;;;;;;;;;;6371228;22;20006;-83
2022/01/25 19:27:43;;;;;;;74.75;36.55;;;;;;;;;;6371231;22;20012;-83
2022/01/25 19:30:17;;;;;;;80.60;36.03;;;;;;;;;;6371238;22;20036;-84
2022/01/25 19:32:43;;;;;;;81.93;36.72;;;;;;;;;;6370961;22;20329;-84
2022/01/25 19:35:08;;;;;;;78.97;38.70;;;;;;;;;;6371009;22;20417;-84
2022/01/25 19:37:34;;;;;;;76.93;36.72;;;;;;;;;;6371190;22;20132;-83
2022/01/25 19:40:00;;;;;;;78.03;36.40;;;;;;;;;;6371282;22;20030;-83
2022/01/25 19:42:29;;;;;;;83.10;37.20;;;;;;;;;;6343196;22;20443;-87
2022/01/25 19:44:54;;;;;;;74.22;35.00;;;;;;;;;;6343395;22;20005;-84
2022/01/25 19:47:20;;;;;;;82.00;37.33;;;;;;;;;;6371219;22;20010;-88
2022/01/25 19:49:46;;;;;;;74.72;35.38;;;;;;;;;;6371139;22;20478;-85
2022/01/25 19:52:15;;;;;;;75.07;36.30;;;;;;;;;;6370982;22;19998;-87
2022/01/25 19:54:41;;;;;;;71.18;34.78;;;;;;;;;;6343043;22;20089;-85
2022/01/25 19:57:11;;;;;;;81.05;38.53;;;;;;;;;;6370814;22;20009;-87
2022/01/25 19:59:44;;;;;;;80.65;39.28;;;;;;;;;;6370525;22;20027;-87
2022/01/25 20:02:11;;;;;;;91.57;43.63;;;;;;;;;;6342977;22;20329;-83
2022/01/25 20:04:36;;;;;;;76.97;39.65;;;;;;;;;;6343163;22;19998;-86
2022/01/25 20:07:04;;;;;;;91.82;41.50;;;;;;;;;;6370697;22;20002;-87
2022/01/25 20:09:34;;;;;;;81.53;37.97;;;;;;;;;;6370132;22;20003;-88
2022/01/25 20:12:03;;;;;;;79.28;37.85;;;;;;;;;;6370621;22;20029;-84
2022/01/25 20:14:29;;;;;;;82.93;38.78;;;;;;;;;;6343213;22;20052;-84
2022/01/25 20:16:55;;;;;;;86.63;40.95;;;;;;;;;;6371015;22;20010;-84
2022/01/25 20:19:20;;;;;;;90.85;40.10;;;;;;;;;;6343157;22;20483;-85
2022/01/25 20:21:53;;;;;;;84.30;39.55;;;;;;;;;;6370312;22;20486;-85
2022/01/25 20:24:38;;;;;;;85.80;41.35;;;;;;;;;;6372543;22;20400;-84
2022/01/25 20:29:55;;;;;;;82.80;38.97;;;;;;;;;;6381210;22;20003;-87
2022/01/25 20:32:15;;;;;;;79.60;38.25;;;;;;;;;;6369554;22;20002;-86
2022/01/25 20:34:43;;;;;;;82.60;40.15;;;;;;;;;;6370436;22;20002;-85
2022/01/25 20:37:10;;;;;;;86.30;40.75;;;;;;;;;;6342699;22;20440;-85
2022/01/25 20:39:36;;;;;;;90.13;38.75;;;;;;;;;;6370605;22;20073;-85
2022/01/25 20:42:03;;;;;;;88.03;38.08;;;;;;;;;;6342828;22;20494;-87
2022/01/25 20:44:28;;;;;;;85.15;38.70;;;;;;;;;;6342659;22;20093;-85
2022/01/25 20:46:54;;;;;;;81.13;38.58;;;;;;;;;;6370686;22;20036;-85
2022/01/25 20:49:19;;;;;;;80.22;37.47;;;;;;;;;;6370257;22;20006;-85
2022/01/25 20:51:45;;;;;;;85.88;37.63;;;;;;;;;;6370189;22;20013;-85
2022/01/25 20:54:10;;;;;;;82.90;38.65;;;;;;;;;;6342731;22;20037;-85
2022/01/25 20:56:37;;;;;;;89.05;39.25;;;;;;;;;;6342678;22;20070;-84
2022/01/25 20:59:03;;;;;;;87.38;38.03;;;;;;;;;;6370509;22;20044;-83
2022/01/25 21:01:30;;;;;;;79.00;39.20;;;;;;;;;;6370107;22;20436;-85
2022/01/25 21:04:29;;;;;;;87.82;40.40;;;;;;;;;;6342699;22;20012;-86
2022/01/25 21:06:54;;;;;;;85.68;39.97;;;;;;;;;;6370264;22;20002;-84
2022/01/25 21:09:22;;;;;;;87.97;39.65;;;;;;;;;;6342632;22;20010;-84
2022/01/25 21:11:51;;;;;;;90.50;40.72;;;;;;;;;;6370417;22;20079;-84
2022/01/25 21:14:18;;;;;;;89.28;40.45;;;;;;;;;;6370592;22;20006;-84
2022/01/25 21:16:44;;;;;;;88.75;39.08;;;;;;;;;;6370395;22;20376;-84
2022/01/25 21:19:11;;;;;;;87.28;39.15;;;;;;;;;;6370124;22;20002;-86
2022/01/25 21:21:38;;;;;;;86.60;39.47;;;;;;;;;;6375537;22;20413;-84
2022/01/25 21:24:05;;;;;;;83.07;38.95;;;;;;;;;;6344213;22;20310;-85
2022/01/25 21:26:30;;;;;;;85.15;40.10;;;;;;;;;;6344735;22;20002;-86
2022/01/25 21:28:57;;;;;;;91.70;39.10;;;;;;;;;;6372676;22;20334;-88
2022/01/25 21:31:27;;;;;;;83.75;38.45;;;;;;;;;;6372794;22;20014;-86
2022/01/25 21:33:54;;;;;;;86.25;40.05;;;;;;;;;;6372537;22;20003;-88
2022/01/25 21:36:20;;;;;;;89.05;40.33;;;;;;;;;;6372535;22;20057;-85
2022/01/25 21:38:47;;;;;;;84.47;39.20;;;;;;;;;;6372388;22;20032;-88
2022/01/25 21:41:13;;;;;;;89.63;39.45;;;;;;;;;;6372473;22;19995;-86
2022/01/25 21:43:39;;;;;;;94.32;43.40;;;;;;;;;;6372577;22;19995;-85
2022/01/25 21:46:06;;;;;;;80.32;38.65;;;;;;;;;;6372213;22;20431;-85
2022/01/25 21:48:31;;;;;;;88.95;40.50;;;;;;;;;;6372702;22;20444;-87
2022/01/25 21:50:57;;;;;;;89.10;39.88;;;;;;;;;;6372346;22;20002;-85
2022/01/25 21:53:24;;;;;;;85.22;38.75;;;;;;;;;;6372496;22;20061;-85
2022/01/25 21:55:49;;;;;;;92.38;40.42;;;;;;;;;;6372238;22;20005;-87
2022/01/25 21:58:15;;;;;;;85.47;36.63;;;;;;;;;;6372449;22;20435;-87
2022/01/25 22:00:45;;;;;;;82.10;37.20;;;;;;;;;;6344287;22;20006;-85
2022/01/25 22:03:27;;;;;;;82.85;37.15;;;;;;;;;;6344195;22;20329;-85
2022/01/25 22:06:00;;;;;;;77.40;36.33;;;;;;;;;;6372200;22;20081;-87
2022/01/25 22:08:32;;;;;;;79.85;36.97;;;;;;;;;;6372214;22;20044;-87
2022/01/25 22:11:00;;;;;;;87.03;36.60;;;;;;;;;;6344017;22;20018;-85
2022/01/25 22:13:30;;;;;;;82.35;38.13;;;;;;;;;;6344378;22;19998;-85
2022/01/25 22:15:56;;;;;;;82.40;39.08;;;;;;;;;;6372021;22;20078;-85
2022/01/25 22:18:22;;;;;;;76.80;36.45;;;;;;;;;;6372083;22;20026;-85
2022/01/25 22:20:49;;;;;;;82.85;38.35;;;;;;;;;;6372083;22;20054;-85
2022/01/25 22:23:21;;;;;;;86.90;39.08;;;;;;;;;;6372090;22;20069;-86
2022/01/25 22:25:46;;;;;;;85.80;36.45;;;;;;;;;;6372123;22;20417;-85
2022/01/25 22:28:12;;;;;;;88.75;38.58;;;;;;;;;;6344342;22;20010;-86
2022/01/25 22:30:37;;;;;;;83.63;37.78;;;;;;;;;;6372067;22;20030;-86
2022/01/25 22:33:04;;;;;;;81.82;36.40;;;;;;;;;;6343380;22;20006;-86
2022/01/25 22:35:29;;;;;;;75.35;33.95;;;;;;;;;;6372052;22;20067;-86
2022/01/25 22:37:55;;;;;;;66.82;31.60;;;;;;;;;;6343948;22;20410;-87
2022/01/25 22:40:21;;;;;;;62.80;29.67;;;;;;;;;;6371703;22;20002;-86
2022/01/25 22:42:50;;;;;;;69.70;30.83;;;;;;;;;;6343855;22;20006;-85
2022/01/25 22:45:16;;;;;;;67.43;30.40;;;;;;;;;;6371967;22;20003;-87
2022/01/25 22:47:46;;;;;;;60.40;28.67;;;;;;;;;;6343911;22;20002;-88
2022/01/25 22:50:17;;;;;;;69.72;33.55;;;;;;;;;;6371659;22;20002;-85
2022/01/25 22:52:43;;;;;;;67.65;31.33;;;;;;;;;;6371451;22;20007;-87
2022/01/25 22:55:12;;;;;;;65.97;28.85;;;;;;;;;;6371824;22;19998;-85
2022/01/25 22:57:38;;;;;;;60.63;28.05;;;;;;;;;;6371712;22;20021;-85
2022/01/25 23:00:07;;;;;;;61.30;31.10;;;;;;;;;;6371622;22;20055;-85
2022/01/25 23:02:33;;;;;;;71.38;33.50;;;;;;;;;;6343754;22;19998;-87
2022/01/25 23:04:58;;;;;;;67.18;30.98;;;;;;;;;;6371764;22;20425;-85
2022/01/25 23:07:26;;;;;;;68.90;31.67;;;;;;;;;;6371610;22;20325;-86
2022/01/25 23:09:53;;;;;;;70.22;32.20;;;;;;;;;;6343651;22;20429;-85
2022/01/25 23:15:06;;;;;;;66.88;32.88;;;;;;;;;;6372280;22;20017;-85
2022/01/25 23:17:33;;;;;;;77.85;36.05;;;;;;;;;;6343437;22;20018;-85
2022/01/25 23:20:12;;;;;;;70.20;33.95;;;;;;;;;;6371514;22;20432;-85
2022/01/25 23:22:38;;;;;;;73.50;34.53;;;;;;;;;;6371650;22;20071;-85
2022/01/25 23:25:04;;;;;;;69.45;32.10;;;;;;;;;;6371604;22;20406;-86
2022/01/25 23:27:31;;;;;;;69.80;31.80;;;;;;;;;;6371130;22;20002;-91
2022/01/25 23:30:06;;;;;;;68.95;31.75;;;;;;;;;;6371625;22;20030;-83
